TJIGTIST

Guest
Details From TJIG - Fernando Luis Ribas Dominicci
To TIST - St Thomas - Cyril E King
Flight Number -
Tags Generated
Created
Modified
Stats Distance 64 nm / 119 km
Max Altitude 0 ft / 0 m
Waypoints 2
Social Downloads 1
Likes 0
Share VATSIM

Download

Looking for another format? Having issues loading an existing format? Contact us
Advertisement - Login to hide

Notes

Generated

Route

TJIG TIST

ID Type Via Altitude (ft/m) Position (lat/lon) Dist (leg/tot) Name
O TJIG APT - 0 / 0 18.45591 / -66.10575 - / 0 nm
O TIST APT - 0 / 0 18.33687 / -64.98343 64 / 64 nm

Altitude Profile

Advertisement - Login to hide

TJIG

Details ICAO TJIG (SIG)
Name Fernando Luis Ribas Dominicci
Region USA (Puerto Rico)
Timezone America/Puerto_Rico (UTC-4.0)
Stats Elevation 8 ft / 2 m (AMSL)
Location 18.456800° -66.098500°
Runways 1
Magnetic Variation 13.221° W

METAR

TJIG 171745Z 12010KT 10SM SCT020 SCT030 BKN055 27/24 A2997

Decode

TAF

Not found

Departure Runways

ID Width Length Bearing (true/mag) Surface Threshold Overrun Markings Lighting
09 98 ft / 30 m 5,537 ft / 1,688 m 82.77° / 95.99° ASPHALT 308 ft / 94 m 0 ft / 0 m APP EDGE THRESHOLD
27 98 ft / 30 m 5,537 ft / 1,688 m 262.77° / 275.99° ASPHALT 118 ft / 36 m 0 ft / 0 m APP EDGE THRESHOLD

TIST

Details ICAO TIST (STT)
Name St Thomas - Cyril E King
Region USA (U.S. Virgin Islands)
Timezone Unknown
Stats Elevation 22 ft / 7 m (AMSL)
Location 18.337300° -64.973300°
Runways 1
Magnetic Variation 13.669° W

METAR

TIST 171753Z 11011KT 10SM CLR 29/25 A2994

Decode

TAF

TAF TIST 171720Z 1718/1818 10017G25KT P6SM VCSH SCT025 SCT050 FM172300 08012KT P6SM VCSH SCT025 FM181200 07011G17KT P6SM BKN250

Decode

Destination Runways

ID Width Length Bearing (true/mag) Surface Threshold Overrun Markings Lighting
10 151 ft / 46 m 6,992 ft / 2,131 m 87.44° / 101.11° ASPHALT 0 ft / 0 m 200 ft / 61 m PREC-APP EDGE THRESHOLD REIL-OMNI
28 151 ft / 46 m 6,992 ft / 2,131 m 267.44° / 281.11° ASPHALT 2,300 ft / 701 m 200 ft / 61 m APP EDGE THRESHOLD

Approach Navaids

Runway Type Ident Frequency Range Bearing (true/mag) Slope Elevation
10 DME ITMN 110.10 MHz 18 nm / 33 km - - 22 ft / 7 m (AMSL)
10 LOC-ILS ITMN 110.10 MHz 18 nm / 33 km 87.45° / 101.12 ° - 15 ft / 5 m (AMSL)
10 GS ITMN 110.10 MHz 10 nm / 19 km 87.88° / 101.55 ° 3.00° 18 ft / 5 m (AMSL)